Basin, Mississippi
Current Conditions -  °F | °C
As of 6:56 PM on Saturday 20 Dec 2014 (Local Time) from KMOB Reporting Station
Overcast Overcast  
Wind Chill: 44°   Ceiling: 600
Heat Index: 49°   Visibility: 10mi
Dew Point: 48°   Wind: 12mph
Humidity: 97%   Direction: 30°NNE
Pressure: 30.15"   Gusts: NA
Location:  30.8443°N, 88.5703°W
Report Text: KMOB 210056Z 03010KT 10SM OVC006 09/09 A3015 RMK AO2 SLP210 T00940089 $
Loading
Personal Weather Stations






























Interactive Weather Map New forecast layout! Learn more

10-Day Weather Forecast

Advertisements
Track Severe Weather on mobile